createdAt,value
2024-01-06T00:00:39.384Z,99854.27
2024-01-06T00:03:30.522Z,99858.48
2024-01-06T00:06:01.954Z,99854.46
2024-01-06T00:08:31.606Z,99858.33
2024-01-06T00:11:02.701Z,99861.23
2024-01-06T00:13:32.084Z,99859.55
2024-01-06T00:16:03.226Z,99860.83
2024-01-06T00:18:32.762Z,99866.73
2024-01-06T00:21:03.967Z,99863.71
2024-01-06T00:23:33.616Z,99863.95
2024-01-06T00:26:06.200Z,99867.36
2024-01-06T00:28:37.486Z,99870.63
2024-01-06T00:31:07.893Z,99875.54
2024-01-06T00:33:39.431Z,99871.71
2024-01-06T00:36:11.159Z,99871.80
2024-01-06T00:38:42.238Z,99866.32
2024-01-06T00:41:13.313Z,99869.22
2024-01-06T00:43:42.621Z,99869.20
2024-01-06T00:46:13.640Z,99867.80
2024-01-06T00:48:44.896Z,99867.14
2024-01-06T00:51:16.182Z,99865.76
2024-01-06T00:53:47.280Z,99860.80
2024-01-06T00:56:38.869Z,99860.80
2024-01-06T00:59:09.900Z,99865.52
2024-01-06T01:01:39.276Z,99866.02
2024-01-06T01:04:10.679Z,99867.86
2024-01-06T01:06:41.863Z,99874.86
2024-01-06T01:09:11.329Z,99875.09
2024-01-06T01:11:42.958Z,99876.61
2024-01-06T01:14:14.031Z,99878.15
2024-01-06T01:16:43.354Z,99879.08
2024-01-06T01:19:14.996Z,99882.77
2024-01-06T01:21:46.201Z,99885.27
2024-01-06T01:24:15.612Z,99884.48
2024-01-06T01:26:46.594Z,99884.91
2024-01-06T01:29:17.749Z,99884.52
2024-01-06T01:31:47.171Z,99882.73
2024-01-06T01:34:18.561Z,99884.44
2024-01-06T01:36:49.711Z,99884.39
2024-01-06T01:39:19.139Z,99884.06
2024-01-06T01:41:52.859Z,99882.27
2024-01-06T01:44:23.908Z,99882.29
2024-01-06T01:46:55.120Z,99882.21
2024-01-06T01:49:27.857Z,99879.33
2024-01-06T01:51:58.950Z,99881.39
2024-01-06T01:54:28.334Z,99876.81
2024-01-06T01:56:59.437Z,99876.24
2024-01-06T01:59:28.773Z,99877.14
2024-01-06T02:02:00.104Z,99874.17
2024-01-06T02:04:31.419Z,99880.17
2024-01-06T02:07:00.735Z,99884.00
2024-01-06T02:09:31.906Z,99887.78
2024-01-06T02:12:03.293Z,99887.77
2024-01-06T02:14:34.801Z,99889.59
2024-01-06T02:17:06.091Z,99891.55
2024-01-06T02:19:37.370Z,99892.56
2024-01-06T02:22:08.574Z,99885.86
2024-01-06T02:24:38.058Z,99884.29
2024-01-06T02:27:09.180Z,99884.52
2024-01-06T02:29:38.553Z,99887.25
2024-01-06T02:32:09.758Z,99887.28
2024-01-06T02:34:40.905Z,99882.35
2024-01-06T02:37:12.120Z,99883.17
2024-01-06T02:39:41.531Z,99885.32
2024-01-06T02:42:12.683Z,99891.38
2024-01-06T02:44:43.738Z,99890.72
2024-01-06T02:47:13.217Z,99892.08
2024-01-06T02:49:44.379Z,99895.01
2024-01-06T02:52:15.552Z,99894.21
2024-01-06T02:54:44.936Z,99891.02
2024-01-06T02:57:15.999Z,99889.25
2024-01-06T02:59:47.462Z,99895.12
2024-01-06T03:02:18.474Z,99894.86
2024-01-06T03:04:49.741Z,99893.48
2024-01-06T03:07:20.733Z,99893.31
2024-01-06T03:09:50.239Z,99898.13
2024-01-06T03:12:21.409Z,99903.90
2024-01-06T03:14:50.999Z,99909.54
2024-01-06T03:17:22.009Z,99914.58
2024-01-06T03:19:53.637Z,99914.59
2024-01-06T03:22:25.166Z,99915.26
2024-01-06T03:24:54.652Z,99919.92
2024-01-06T03:27:25.840Z,99920.71
2024-01-06T03:29:55.210Z,99918.69
2024-01-06T03:32:26.269Z,99921.20
2024-01-06T03:34:57.419Z,99919.13
2024-01-06T03:37:26.790Z,99923.11
2024-01-06T03:39:57.956Z,99925.70
2024-01-06T03:42:29.091Z,99928.15
2024-01-06T03:44:58.486Z,99936.45
2024-01-06T03:47:29.535Z,99934.59
2024-01-06T03:49:58.928Z,99938.83
2024-01-06T03:52:29.951Z,99935.52
2024-01-06T03:55:01.141Z,99934.38
2024-01-06T03:57:32.752Z,99931.60
2024-01-06T04:00:04.375Z,99929.52
2024-01-06T04:02:35.424Z,99926.98
2024-01-06T04:05:07.188Z,99925.43
2024-01-06T04:07:38.178Z,99928.10
2024-01-06T04:10:10.587Z,99927.10
2024-01-06T04:12:41.642Z,99923.27
2024-01-06T04:15:11.161Z,99926.09
2024-01-06T04:17:42.324Z,99919.60
2024-01-06T04:20:15.497Z,99919.95
2024-01-06T04:22:46.548Z,99921.13
2024-01-06T04:25:17.687Z,99922.40
2024-01-06T04:27:47.049Z,99927.79
2024-01-06T04:30:18.876Z,99933.02
2024-01-06T04:32:50.795Z,99933.47
2024-01-06T04:35:23.633Z,99934.28
2024-01-06T04:37:54.904Z,99934.79
2024-01-06T04:40:26.275Z,99936.53
2024-01-06T04:42:57.321Z,99937.80
2024-01-06T04:45:28.814Z,99938.94
2024-01-06T04:48:00.063Z,99937.67
2024-01-06T04:50:29.422Z,99944.60
2024-01-06T04:53:00.411Z,99950.30
2024-01-06T04:55:37.642Z,99952.85
2024-01-06T04:58:08.623Z,99950.33
2024-01-06T05:00:39.767Z,99950.48
2024-01-06T05:03:10.940Z,99952.86
2024-01-06T05:05:42.661Z,99947.63
2024-01-06T05:08:13.746Z,99952.69
2024-01-06T05:10:45.344Z,99958.38
2024-01-06T05:13:21.127Z,99959.80
2024-01-06T05:15:52.188Z,99961.86
2024-01-06T05:18:23.358Z,99965.79
2024-01-06T05:20:55.104Z,99965.84
2024-01-06T05:23:26.569Z,99973.27
2024-01-06T05:25:57.687Z,99975.71
2024-01-06T05:28:26.988Z,99978.98
2024-01-06T05:30:58.145Z,99985.84
2024-01-06T05:33:29.294Z,99989.92
2024-01-06T05:35:58.711Z,99990.55
2024-01-06T05:38:29.701Z,99996.73
2024-01-06T05:41:00.744Z,100006.61
2024-01-06T05:43:30.105Z,100009.04
2024-01-06T05:46:01.295Z,100015.10
2024-01-06T05:48:30.929Z,100020.11
2024-01-06T05:51:02.437Z,100022.27
2024-01-06T05:53:33.542Z,100021.02
2024-01-06T05:56:11.620Z,100027.98
2024-01-06T05:58:42.644Z,100030.98
2024-01-06T06:01:12.166Z,100032.22
2024-01-06T06:03:43.578Z,100032.27
2024-01-06T06:06:14.755Z,100035.67
2024-01-06T06:08:48.106Z,100031.75
2024-01-06T06:11:19.246Z,100036.48
2024-01-06T06:13:48.530Z,100039.13
2024-01-06T06:16:19.674Z,100042.25
2024-01-06T06:18:49.033Z,100045.31
2024-01-06T06:21:20.263Z,100053.48
2024-01-06T06:23:49.578Z,100050.99
2024-01-06T06:26:20.813Z,100056.70
2024-01-06T06:28:52.050Z,100062.64
2024-01-06T06:31:23.770Z,100065.02
2024-01-06T06:33:55.160Z,100072.09
2024-01-06T06:36:26.410Z,100077.41
2024-01-06T06:38:57.528Z,100084.09
2024-01-06T06:41:28.561Z,100093.23
2024-01-06T06:44:21.356Z,100093.75
2024-01-06T06:46:50.110Z,100101.87
2024-01-06T06:49:19.505Z,100103.81
2024-01-06T06:51:50.658Z,100104.76
2024-01-06T06:54:22.464Z,100108.30
2024-01-06T06:57:06.813Z,100111.81
2024-01-06T06:59:37.811Z,100118.98
2024-01-06T07:02:11.771Z,100125.06
2024-01-06T07:04:43.342Z,100127.92
2024-01-06T07:07:12.699Z,100141.48
2024-01-06T07:09:47.259Z,100142.96
2024-01-06T07:12:18.375Z,100148.73
2024-01-06T07:14:47.712Z,100144.04
2024-01-06T07:17:19.395Z,100145.29
2024-01-06T07:19:51.147Z,100147.59
2024-01-06T07:22:22.476Z,100150.83
2024-01-06T07:24:52.254Z,100150.46
2024-01-06T07:27:23.317Z,100149.38
2024-01-06T07:29:55.967Z,100149.63
2024-01-06T07:32:27.317Z,100156.81
2024-01-06T07:34:58.611Z,100155.54
2024-01-06T07:37:29.684Z,100164.48
2024-01-06T07:39:59.014Z,100168.68
2024-01-06T07:42:36.960Z,100168.86
2024-01-06T07:45:10.095Z,100172.82
2024-01-06T07:47:41.199Z,100179.16
2024-01-06T07:50:12.298Z,100186.22
2024-01-06T07:52:43.342Z,100192.34
2024-01-06T07:55:14.398Z,100197.52
2024-01-06T07:57:44.442Z,100204.88
2024-01-06T08:00:16.905Z,100205.95
2024-01-06T08:02:47.995Z,100209.51
2024-01-06T08:05:17.394Z,100209.45
2024-01-06T08:07:48.950Z,100212.42
2024-01-06T08:10:23.215Z,100220.31
2024-01-06T08:12:55.033Z,100220.30
2024-01-06T08:15:26.209Z,100224.25
2024-01-06T08:17:55.794Z,100222.54
2024-01-06T08:20:26.916Z,100224.83
2024-01-06T08:22:56.325Z,100230.14
2024-01-06T08:25:27.533Z,100237.23
2024-01-06T08:27:58.649Z,100236.65
2024-01-06T08:30:28.206Z,100239.52
2024-01-06T08:32:59.361Z,100247.25
2024-01-06T08:35:28.780Z,100245.65
2024-01-06T08:38:00.251Z,100245.68
2024-01-06T08:40:31.271Z,100251.20
2024-01-06T08:43:02.688Z,100253.55
2024-01-06T08:45:33.805Z,100261.72
2024-01-06T08:48:05.956Z,100260.98
2024-01-06T08:50:37.336Z,100260.07
2024-01-06T08:53:08.653Z,100265.34
2024-01-06T08:55:40.069Z,100271.05
2024-01-06T08:58:11.160Z,100273.89
2024-01-06T09:00:40.491Z,100280.02
2024-01-06T09:03:45.407Z,100282.25
2024-01-06T09:06:07.611Z,100280.40
2024-01-06T09:08:38.692Z,100288.23
2024-01-06T09:11:08.087Z,100284.06
2024-01-06T09:13:39.160Z,100289.02
2024-01-06T09:16:08.695Z,100297.39
2024-01-06T09:18:39.987Z,100297.48
2024-01-06T09:21:11.080Z,100295.02
2024-01-06T09:23:42.110Z,100301.07
2024-01-06T09:26:13.336Z,100304.11
2024-01-06T09:28:44.470Z,100304.53
2024-01-06T09:31:15.655Z,100304.87
2024-01-06T09:33:55.556Z,100300.27
2024-01-06T09:36:26.644Z,100308.36
2024-01-06T09:38:57.697Z,100313.13
2024-01-06T09:41:27.140Z,100312.39
2024-01-06T09:44:22.958Z,100308.48
2024-01-06T09:46:52.428Z,100316.60
2024-01-06T09:49:26.948Z,100314.05
2024-01-06T09:52:05.113Z,100312.71
2024-01-06T09:54:39.780Z,100312.92
2024-01-06T09:57:11.554Z,100314.67
2024-01-06T09:59:45.098Z,100323.40
2024-01-06T10:02:17.734Z,100327.61
2024-01-06T10:04:49.678Z,100327.77
2024-01-06T10:07:20.943Z,100326.67
2024-01-06T10:09:55.427Z,100323.40
2024-01-06T10:12:30.139Z,100325.66
2024-01-06T10:15:05.692Z,100322.08
2024-01-06T10:17:39.253Z,100326.58
2024-01-06T10:20:13.079Z,100328.45
2024-01-06T10:22:44.781Z,100327.05
2024-01-06T10:25:15.941Z,100327.66
2024-01-06T10:27:45.330Z,100326.27
2024-01-06T10:30:16.880Z,100324.84
2024-01-06T10:32:48.278Z,100326.46
2024-01-06T10:35:20.335Z,100323.77
2024-01-06T10:37:53.052Z,100327.78
2024-01-06T10:40:24.376Z,100328.69
2024-01-06T10:42:56.962Z,100325.42
2024-01-06T10:45:29.412Z,100329.42
2024-01-06T10:48:00.900Z,100328.62
2024-01-06T10:50:32.942Z,100328.87
2024-01-06T10:53:05.126Z,100332.29
2024-01-06T10:55:44.487Z,100334.81
2024-01-06T10:58:18.295Z,100327.83
2024-01-06T11:00:50.955Z,100340.30
2024-01-06T11:03:23.272Z,100338.98
2024-01-06T11:05:54.595Z,100340.65
2024-01-06T11:08:26.718Z,100345.52
2024-01-06T11:10:59.397Z,100346.52
2024-01-06T11:13:30.404Z,100342.56
2024-01-06T11:16:00.746Z,100346.77
2024-01-06T11:18:37.288Z,100338.06
2024-01-06T11:21:22.439Z,100341.63
2024-01-06T11:24:19.256Z,100346.38
2024-01-06T11:26:53.318Z,100344.63
2024-01-06T11:29:26.857Z,100341.88
2024-01-06T11:32:31.218Z,100340.77
2024-01-06T11:35:09.985Z,100333.73
2024-01-06T11:37:55.210Z,100336.41
2024-01-06T11:40:38.382Z,100335.55
2024-01-06T11:43:13.336Z,100337.97
2024-01-06T11:45:44.773Z,100332.01
2024-01-06T11:48:32.576Z,100328.91
2024-01-06T11:51:04.581Z,100333.36
2024-01-06T11:53:36.250Z,100331.19
2024-01-06T11:56:10.099Z,100330.62
2024-01-06T11:58:43.420Z,100330.28
2024-01-06T12:01:14.622Z,100327.30
2024-01-06T12:03:54.550Z,100336.75
2024-01-06T12:06:28.494Z,100338.36
2024-01-06T12:09:05.755Z,100343.65
2024-01-06T12:11:37.770Z,100347.11
2024-01-06T12:14:08.822Z,100349.13
2024-01-06T12:16:38.296Z,100349.37
2024-01-06T12:19:09.549Z,100355.45
2024-01-06T12:21:41.180Z,100354.61
2024-01-06T12:24:23.207Z,100362.34
2024-01-06T12:26:56.101Z,100365.80
2024-01-06T12:29:29.320Z,100362.92
2024-01-06T12:32:02.104Z,100369.55
2024-01-06T12:34:33.689Z,100365.86
2024-01-06T12:37:08.746Z,100371.59
2024-01-06T12:39:40.402Z,100376.00
2024-01-06T12:42:16.174Z,100381.65
2024-01-06T12:44:48.139Z,100385.49
2024-01-06T12:47:17.626Z,100387.58
2024-01-06T12:49:49.385Z,100390.66
2024-01-06T12:52:21.709Z,100398.23
2024-01-06T12:54:53.063Z,100402.67
2024-01-06T12:57:26.575Z,100399.63
2024-01-06T12:59:57.925Z,100402.89
2024-01-06T13:02:29.396Z,100402.09
2024-01-06T13:04:58.833Z,100405.17
2024-01-06T13:07:39.845Z,100408.58
2024-01-06T13:10:11.742Z,100417.21
2024-01-06T13:12:43.010Z,100420.48
2024-01-06T13:15:14.259Z,100426.45
2024-01-06T13:17:48.794Z,100427.25
2024-01-06T13:20:20.617Z,100427.57
2024-01-06T13:22:54.245Z,100428.38
2024-01-06T13:25:25.429Z,100435.27
2024-01-06T13:27:56.549Z,100437.36
2024-01-06T13:30:27.816Z,100440.45
2024-01-06T13:33:01.187Z,100442.64
2024-01-06T13:35:32.357Z,100444.02
2024-01-06T13:38:01.958Z,100441.95
2024-01-06T13:40:33.515Z,100440.45
2024-01-06T13:43:05.280Z,100442.05
2024-01-06T13:45:36.718Z,100448.34
2024-01-06T13:48:10.563Z,100458.42
2024-01-06T13:50:42.072Z,100457.90
2024-01-06T13:53:13.361Z,100463.02
2024-01-06T13:55:46.093Z,100465.67
2024-01-06T13:58:37.658Z,100471.81
2024-01-06T14:01:10.385Z,100474.26
2024-01-06T14:04:05.347Z,100475.33
2024-01-06T14:06:36.976Z,100475.05
2024-01-06T14:09:08.330Z,100479.22
2024-01-06T14:12:02.762Z,100482.54
2024-01-06T14:15:26.828Z,100480.64
2024-01-06T14:17:37.511Z,100486.47
2024-01-06T14:20:44.061Z,100491.16
2024-01-06T14:23:39.655Z,100494.88
2024-01-06T14:26:16.825Z,100497.48
2024-01-06T14:29:14.671Z,100490.92
2024-01-06T14:31:46.237Z,100494.80
2024-01-06T14:34:17.695Z,100497.20
2024-01-06T14:36:49.257Z,100499.34
2024-01-06T14:39:20.792Z,100499.33
2024-01-06T14:41:52.200Z,100504.30
2024-01-06T14:44:25.699Z,100506.48
2024-01-06T14:47:20.233Z,100518.46
2024-01-06T14:49:48.834Z,100521.98
2024-01-06T14:52:26.057Z,100530.59
2024-01-06T14:54:57.613Z,100531.52
2024-01-06T14:57:29.940Z,100534.56
2024-01-06T15:00:25.707Z,100538.29
2024-01-06T15:03:56.378Z,100541.56
2024-01-06T15:07:17.550Z,100546.41
2024-01-06T15:10:25.022Z,100551.34
2024-01-06T15:15:30.476Z,100559.73
2024-01-06T15:21:03.534Z,100553.58
2024-01-06T15:23:20.568Z,100558.98
2024-01-06T15:25:49.961Z,100559.55
2024-01-06T15:28:21.110Z,100567.28
2024-01-06T15:30:52.433Z,100560.64
2024-01-06T15:33:23.963Z,100562.77
2024-01-06T15:36:00.216Z,100557.78
2024-01-06T15:38:31.540Z,100561.05
2024-01-06T15:41:12.484Z,100567.41
2024-01-06T15:43:43.547Z,100567.62
2024-01-06T15:46:15.145Z,100561.56
2024-01-06T15:48:46.385Z,100567.23
2024-01-06T15:51:17.896Z,100565.03
2024-01-06T15:53:48.909Z,100565.63
2024-01-06T15:56:25.312Z,100559.98
2024-01-06T15:58:56.277Z,100561.70
2024-01-06T16:01:27.499Z,100562.30
2024-01-06T16:03:59.052Z,100567.71
2024-01-06T16:06:34.543Z,100576.23
2024-01-06T16:09:09.440Z,100579.27
2024-01-06T16:11:44.338Z,100576.95
2024-01-06T16:14:15.372Z,100570.84
2024-01-06T16:16:46.938Z,100573.50
2024-01-06T16:19:18.295Z,100573.94
2024-01-06T16:21:54.261Z,100572.02
2024-01-06T16:24:28.912Z,100575.14
2024-01-06T16:27:00.043Z,100575.98
2024-01-06T16:29:29.412Z,100579.71
2024-01-06T16:32:00.532Z,100577.55
2024-01-06T16:34:30.240Z,100582.20
2024-01-06T16:36:59.801Z,100586.43
2024-01-06T16:39:29.172Z,100589.86
2024-01-06T16:41:59.052Z,100590.83
2024-01-06T16:44:31.639Z,100592.85
2024-01-06T16:47:07.601Z,100603.44
2024-01-06T16:49:40.988Z,100611.59
2024-01-06T16:52:10.431Z,100612.27
2024-01-06T16:54:40.013Z,100609.73
2024-01-06T16:57:09.361Z,100615.96
2024-01-06T16:59:48.664Z,100623.48
2024-01-06T17:02:18.062Z,100627.64
2024-01-06T17:04:47.762Z,100635.53
2024-01-06T17:07:31.091Z,100642.48
2024-01-06T17:10:01.347Z,100642.16
2024-01-06T17:12:30.885Z,100641.80
2024-01-06T17:15:00.993Z,100645.75
2024-01-06T17:17:30.519Z,100644.00
2024-01-06T17:20:02.907Z,100640.85
2024-01-06T17:22:45.342Z,100645.88
2024-01-06T17:25:17.925Z,100651.89
2024-01-06T17:27:47.532Z,100653.83
2024-01-06T17:30:19.409Z,100656.15
2024-01-06T17:32:48.989Z,100655.85
2024-01-06T17:35:18.816Z,100657.50
2024-01-06T17:37:48.262Z,100662.63
2024-01-06T17:40:18.105Z,100657.85
2024-01-06T17:43:00.466Z,100658.58
2024-01-06T17:45:48.235Z,100664.02
2024-01-06T17:48:19.944Z,100665.90
2024-01-06T17:51:19.722Z,100665.96
2024-01-06T17:53:39.222Z,100666.31
2024-01-06T17:56:08.866Z,100668.00
2024-01-06T17:58:38.319Z,100669.43
2024-01-06T18:01:07.791Z,100671.29
2024-01-06T18:03:37.227Z,100676.61
2024-01-06T18:06:07.152Z,100681.74
2024-01-06T18:08:36.734Z,100687.08
2024-01-06T18:11:07.780Z,100689.33
2024-01-06T18:13:37.807Z,100690.65
2024-01-06T18:16:07.636Z,100689.49
2024-01-06T18:18:37.361Z,100688.66
2024-01-06T18:21:06.935Z,100684.57
2024-01-06T18:23:36.336Z,100685.86
2024-01-06T18:26:06.823Z,100684.36
2024-01-06T18:28:36.123Z,100687.41
2024-01-06T18:31:05.616Z,100686.71
2024-01-06T18:33:36.801Z,100692.20
2024-01-06T18:36:08.547Z,100690.89
2024-01-06T18:41:18.946Z,100703.13
2024-01-06T18:43:48.279Z,100705.45
2024-01-06T18:46:19.415Z,100711.61
2024-01-06T18:48:49.041Z,100712.54
2024-01-06T18:51:21.913Z,100720.74
2024-01-06T18:53:55.012Z,100721.61
2024-01-06T18:56:26.065Z,100721.98
2024-01-06T18:58:57.181Z,100723.67
2024-01-06T19:01:26.985Z,100729.32
2024-01-06T19:03:58.212Z,100726.73
2024-01-06T19:06:29.368Z,100724.08
2024-01-06T19:09:30.537Z,100729.41
2024-01-06T19:11:59.739Z,100734.94
2024-01-06T19:14:30.941Z,100739.33
2024-01-06T19:17:00.251Z,100744.06
2024-01-06T19:19:31.531Z,100746.30
2024-01-06T19:22:02.842Z,100749.96
2024-01-06T19:24:40.449Z,100747.10
2024-01-06T19:27:17.534Z,100747.40
2024-01-06T19:29:58.562Z,100746.45
2024-01-06T19:32:29.713Z,100745.18
2024-01-06T19:35:04.076Z,100747.92
2024-01-06T19:37:35.221Z,100750.38
2024-01-06T19:40:05.209Z,100754.05
2024-01-06T19:42:39.638Z,100752.66
2024-01-06T19:45:11.579Z,100751.05
2024-01-06T19:47:44.430Z,100751.38
2024-01-06T19:50:41.303Z,100753.79
2024-01-06T19:53:11.352Z,100750.87
2024-01-06T19:55:44.306Z,100754.17
2024-01-06T19:58:38.802Z,100757.05
2024-01-06T20:01:39.089Z,100756.67
2024-01-06T20:04:11.089Z,100757.59
2024-01-06T20:06:44.836Z,100757.46
2024-01-06T20:09:48.573Z,100757.88
2024-01-06T20:12:11.384Z,100751.25
2024-01-06T20:14:42.665Z,100757.84
2024-01-06T20:17:13.833Z,100756.01
2024-01-06T20:20:12.040Z,100763.73
2024-01-06T20:22:40.846Z,100766.54
2024-01-06T20:25:10.918Z,100771.97
2024-01-06T20:27:44.601Z,100774.69
2024-01-06T20:30:16.718Z,100777.61
2024-01-06T20:32:53.704Z,100783.02
2024-01-06T20:35:25.008Z,100783.73
2024-01-06T20:37:56.838Z,100779.23
2024-01-06T20:40:33.246Z,100780.76
2024-01-06T20:43:05.139Z,100781.97
2024-01-06T20:45:36.307Z,100780.55
2024-01-06T20:48:06.419Z,100776.59
2024-01-06T20:50:44.817Z,100778.19
2024-01-06T20:53:16.346Z,100779.63
2024-01-06T20:55:48.927Z,100775.33
2024-01-06T20:58:20.343Z,100779.11
2024-01-06T21:00:52.747Z,100780.16
2024-01-06T21:03:26.374Z,100775.98
2024-01-06T21:05:57.934Z,100778.27
2024-01-06T21:08:28.956Z,100779.56
2024-01-06T21:11:00.626Z,100786.52
2024-01-06T21:13:31.989Z,100789.21
2024-01-06T21:16:03.276Z,100787.16
2024-01-06T21:18:35.008Z,100795.84
2024-01-06T21:21:06.392Z,100792.95
2024-01-06T21:23:44.921Z,100784.36
2024-01-06T21:26:20.642Z,100792.20
2024-01-06T21:28:52.669Z,100794.60
2024-01-06T21:31:24.015Z,100793.55
2024-01-06T21:33:58.261Z,100793.59
2024-01-06T21:36:29.499Z,100792.92
2024-01-06T21:39:00.629Z,100794.84
2024-01-06T21:41:32.252Z,100800.97
2024-01-06T21:44:01.549Z,100802.21
2024-01-06T21:46:33.452Z,100808.71
2024-01-06T21:49:04.629Z,100811.66
2024-01-06T21:51:46.477Z,100805.59
2024-01-06T21:54:17.606Z,100813.21
2024-01-06T21:56:47.816Z,100821.96
2024-01-06T21:59:18.843Z,100817.67
2024-01-06T22:01:49.992Z,100820.91
2024-01-06T22:04:21.078Z,100817.95
2024-01-06T22:06:50.678Z,100827.67
2024-01-06T22:09:32.949Z,100822.09
2024-01-06T22:12:04.266Z,100822.73
2024-01-06T22:14:36.227Z,100825.96
2024-01-06T22:17:07.712Z,100828.13
2024-01-06T22:19:38.785Z,100821.22
2024-01-06T22:22:30.530Z,100834.19
2024-01-06T22:25:01.759Z,100831.94
2024-01-06T22:27:32.988Z,100835.21
2024-01-06T22:30:04.102Z,100840.45
2024-01-06T22:32:35.541Z,100835.70
2024-01-06T22:35:08.259Z,100837.67
2024-01-06T22:37:39.341Z,100840.27
2024-01-06T22:40:10.749Z,100840.77
2024-01-06T22:42:41.984Z,100843.93
2024-01-06T22:45:11.557Z,100838.77
2024-01-06T22:47:42.734Z,100841.86
2024-01-06T22:50:13.992Z,100842.34
2024-01-06T22:52:45.170Z,100843.09
2024-01-06T22:55:16.436Z,100844.68
2024-01-06T22:57:47.585Z,100849.09
2024-01-06T23:03:24.939Z,100850.91
2024-01-06T23:05:56.125Z,100855.46
2024-01-06T23:08:25.467Z,100858.27
2024-01-06T23:10:58.659Z,100862.84
2024-01-06T23:13:30.485Z,100860.28
2024-01-06T23:16:01.587Z,100862.84
2024-01-06T23:18:33.199Z,100860.89
2024-01-06T23:21:04.695Z,100861.52
2024-01-06T23:23:37.278Z,100868.48
2024-01-06T23:26:08.392Z,100874.11
2024-01-06T23:28:37.758Z,100879.68
2024-01-06T23:31:08.934Z,100880.29
2024-01-06T23:33:41.603Z,100891.68
2024-01-06T23:36:12.807Z,100888.64
2024-01-06T23:38:43.814Z,100890.33
2024-01-06T23:41:15.342Z,100895.64
2024-01-06T23:43:46.803Z,100894.55
2024-01-06T23:46:16.075Z,100894.43
2024-01-06T23:48:47.173Z,100892.20
2024-01-06T23:51:20.517Z,100893.15
2024-01-06T23:53:53.792Z,100891.92
2024-01-06T23:56:25.477Z,100892.27
2024-01-06T23:58:56.603Z,100892.44
